createdAt,value
2019-03-31T00:02:24.056Z,57.96
2019-03-31T00:04:57.815Z,58.82
2019-03-31T00:07:31.582Z,60.02
2019-03-31T00:10:05.772Z,60.73
2019-03-31T00:12:39.475Z,61.36
2019-03-31T00:15:13.570Z,61.98
2019-03-31T00:17:47.175Z,62.54
2019-03-31T00:20:20.839Z,65.38
2019-03-31T00:22:54.492Z,55.11
2019-03-31T00:25:28.771Z,48.74
2019-03-31T00:28:02.475Z,50.38
2019-03-31T00:30:36.153Z,52.90
2019-03-31T00:33:09.781Z,54.54
2019-03-31T00:35:43.424Z,55.63
2019-03-31T00:38:17.144Z,56.76
2019-03-31T00:40:50.870Z,57.78
2019-03-31T00:43:24.585Z,58.58
2019-03-31T00:45:58.185Z,59.20
2019-03-31T00:48:33.343Z,59.91
2019-03-31T00:51:06.995Z,60.71
2019-03-31T00:53:40.599Z,61.56
2019-03-31T00:56:14.276Z,62.32
2019-03-31T00:58:47.947Z,65.60
2019-03-31T01:01:36.435Z,55.37
2019-03-31T01:04:05.401Z,49.15
2019-03-31T01:06:39.494Z,50.93
2019-03-31T01:09:32.588Z,52.77
2019-03-31T01:12:07.463Z,54.73
2019-03-31T01:14:41.449Z,56.13
2019-03-31T01:17:18.667Z,57.28
2019-03-31T01:19:53.335Z,58.12
2019-03-31T01:22:27.867Z,58.98
2019-03-31T01:25:01.696Z,59.49
2019-03-31T01:27:37.593Z,60.34
2019-03-31T01:30:12.757Z,61.02
2019-03-31T01:32:46.797Z,61.71
2019-03-31T01:35:21.232Z,62.23
2019-03-31T01:37:55.144Z,65.29
2019-03-31T01:40:29.268Z,54.92
2019-03-31T01:43:02.913Z,48.38
2019-03-31T01:45:36.939Z,50.06
2019-03-31T01:48:11.681Z,52.31
2019-03-31T01:50:45.593Z,54.04
2019-03-31T01:53:19.386Z,55.65
2019-03-31T01:55:53.008Z,57.09
2019-03-31T01:58:26.651Z,58.22
2019-03-31T02:01:01.789Z,59.43
2019-03-31T02:03:35.603Z,60.00
2019-03-31T02:06:09.406Z,60.95
2019-03-31T02:08:43.214Z,61.71
2019-03-31T02:11:17.802Z,62.78
2019-03-31T02:13:51.496Z,65.76
2019-03-31T02:16:26.684Z,55.46
2019-03-31T02:19:00.398Z,48.63
2019-03-31T02:21:34.818Z,50.48
2019-03-31T02:24:08.470Z,52.52
2019-03-31T02:26:42.091Z,54.46
2019-03-31T02:29:15.793Z,55.99
2019-03-31T02:31:49.429Z,57.57
2019-03-31T02:34:23.041Z,58.38
2019-03-31T02:36:56.735Z,59.42
2019-03-31T02:39:32.002Z,60.13
2019-03-31T02:42:05.901Z,60.86
2019-03-31T02:44:39.571Z,61.45
2019-03-31T02:47:13.296Z,62.18
2019-03-31T02:49:47.055Z,62.78
2019-03-31T02:52:20.663Z,65.82
2019-03-31T02:54:54.407Z,54.60
2019-03-31T02:57:28.747Z,48.30
2019-03-31T03:00:04.273Z,50.47
2019-03-31T03:02:42.559Z,52.82
2019-03-31T03:05:19.876Z,54.85
2019-03-31T03:07:51.576Z,56.01
2019-03-31T03:10:27.476Z,57.16
2019-03-31T03:13:04.058Z,58.47
2019-03-31T03:15:50.203Z,59.49
2019-03-31T03:18:23.878Z,60.21
2019-03-31T03:20:57.507Z,61.11
2019-03-31T03:23:31.167Z,61.58
2019-03-31T03:26:05.018Z,62.24
2019-03-31T03:28:38.676Z,66.10
2019-03-31T03:31:15.773Z,54.97
2019-03-31T03:33:49.012Z,48.54
2019-03-31T03:36:22.633Z,50.47
2019-03-31T03:38:56.456Z,52.90
2019-03-31T03:41:30.224Z,54.87
2019-03-31T03:44:03.880Z,56.13
2019-03-31T03:46:37.513Z,57.57
2019-03-31T03:49:11.519Z,58.24
2019-03-31T03:51:45.497Z,58.95
2019-03-31T03:54:19.208Z,59.31
2019-03-31T03:56:52.907Z,60.18
2019-03-31T03:59:26.791Z,61.01
2019-03-31T04:02:00.513Z,61.57
2019-03-31T04:04:34.556Z,61.78
2019-03-31T04:07:08.274Z,62.15
2019-03-31T04:09:41.893Z,65.88
2019-03-31T04:12:15.626Z,55.22
2019-03-31T04:14:49.598Z,48.22
2019-03-31T04:17:23.277Z,49.97
2019-03-31T04:19:57.101Z,51.89
2019-03-31T04:22:30.761Z,53.70
2019-03-31T04:25:04.623Z,55.00
2019-03-31T04:27:38.394Z,56.32
2019-03-31T04:30:12.147Z,57.73
2019-03-31T04:32:45.950Z,58.46
2019-03-31T04:35:19.788Z,59.19
2019-03-31T04:37:53.509Z,60.22
2019-03-31T04:40:27.263Z,60.79
2019-03-31T04:43:00.936Z,61.57
2019-03-31T04:45:34.722Z,62.31
2019-03-31T04:48:08.329Z,65.78
2019-03-31T04:50:43.541Z,54.83
2019-03-31T04:53:17.665Z,48.27
2019-03-31T04:55:51.355Z,50.37
2019-03-31T04:58:25.027Z,52.93
2019-03-31T05:00:58.863Z,55.18
2019-03-31T05:03:32.569Z,56.39
2019-03-31T05:06:06.246Z,58.18
2019-03-31T05:08:39.984Z,58.74
2019-03-31T05:11:13.686Z,59.94
2019-03-31T05:13:47.490Z,61.17
2019-03-31T05:16:21.226Z,61.86
2019-03-31T05:18:54.955Z,62.43
2019-03-31T05:21:28.627Z,63.98
2019-03-31T05:24:02.379Z,54.29
2019-03-31T05:26:36.282Z,48.76
2019-03-31T05:29:10.405Z,50.65
2019-03-31T05:31:44.087Z,52.65
2019-03-31T05:34:19.283Z,54.41
2019-03-31T05:36:53.441Z,55.72
2019-03-31T05:39:29.055Z,56.96
2019-03-31T05:42:03.098Z,57.72
2019-03-31T05:44:37.854Z,58.35
2019-03-31T05:47:11.681Z,59.23
2019-03-31T05:49:45.524Z,60.27
2019-03-31T05:52:19.331Z,60.95
2019-03-31T05:54:52.967Z,61.43
2019-03-31T05:57:26.595Z,62.11
2019-03-31T06:00:00.544Z,64.16
2019-03-31T06:02:34.511Z,54.58
2019-03-31T06:05:09.250Z,48.49
2019-03-31T06:07:43.017Z,50.29
2019-03-31T06:10:16.791Z,52.29
2019-03-31T06:12:50.559Z,53.78
2019-03-31T06:15:24.374Z,55.15
2019-03-31T06:17:58.300Z,56.37
2019-03-31T06:20:33.788Z,57.68
2019-03-31T06:23:07.456Z,58.41
2019-03-31T06:25:41.093Z,59.23
2019-03-31T06:28:14.766Z,59.80
2019-03-31T06:30:48.497Z,60.39
2019-03-31T06:33:22.098Z,61.01
2019-03-31T06:35:55.756Z,61.41
2019-03-31T06:38:29.299Z,62.07
2019-03-31T06:41:04.041Z,62.95
2019-03-31T06:43:37.749Z,64.73
2019-03-31T06:46:12.507Z,53.57
2019-03-31T06:48:46.415Z,48.41
2019-03-31T06:51:21.231Z,50.48
2019-03-31T06:53:54.997Z,52.66
2019-03-31T06:56:28.817Z,53.62
2019-03-31T06:59:02.609Z,54.74
2019-03-31T07:01:36.559Z,55.17
2019-03-31T07:04:10.233Z,55.50
2019-03-31T07:06:44.029Z,55.82
2019-03-31T07:09:17.919Z,57.22
2019-03-31T07:11:51.697Z,57.38
2019-03-31T07:14:25.538Z,58.12
2019-03-31T07:16:59.425Z,59.31
2019-03-31T07:19:33.108Z,59.06
2019-03-31T07:22:06.795Z,59.38
2019-03-31T07:24:40.489Z,60.20
2019-03-31T07:27:14.222Z,59.87
2019-03-31T07:29:47.988Z,60.65
2019-03-31T07:32:21.905Z,60.92
2019-03-31T07:34:55.720Z,61.40
2019-03-31T07:37:29.833Z,61.52
2019-03-31T07:40:12.063Z,62.05
2019-03-31T07:42:50.873Z,62.34
2019-03-31T07:45:23.733Z,62.47
2019-03-31T07:47:57.568Z,60.31
2019-03-31T07:50:31.587Z,49.53
2019-03-31T07:53:07.231Z,50.60
2019-03-31T07:55:42.822Z,52.16
2019-03-31T07:58:20.956Z,53.66
2019-03-31T08:00:57.581Z,55.16
2019-03-31T08:03:34.470Z,55.29
2019-03-31T08:06:13.087Z,55.80
2019-03-31T08:08:53.238Z,56.41
2019-03-31T08:11:33.635Z,56.96
2019-03-31T08:14:10.220Z,56.01
2019-03-31T08:16:45.618Z,57.25
2019-03-31T08:19:22.626Z,56.15
2019-03-31T08:21:57.739Z,56.98
2019-03-31T08:24:43.423Z,56.95
2019-03-31T08:27:19.517Z,56.97
2019-03-31T08:30:00.334Z,55.75
2019-03-31T08:32:35.614Z,56.55
2019-03-31T08:35:12.311Z,56.84
2019-03-31T08:37:52.543Z,55.54
2019-03-31T08:40:26.461Z,55.05
2019-03-31T08:43:06.483Z,54.59
2019-03-31T08:45:45.345Z,54.12
2019-03-31T08:48:28.339Z,53.79
2019-03-31T08:51:04.518Z,53.37
2019-03-31T08:53:39.750Z,52.80
2019-03-31T08:56:17.833Z,52.90
2019-03-31T08:58:51.652Z,53.82
2019-03-31T09:01:25.736Z,51.98
2019-03-31T09:04:07.085Z,53.01
2019-03-31T09:06:42.196Z,52.17
2019-03-31T09:09:16.223Z,52.24
2019-03-31T09:11:50.091Z,51.95
2019-03-31T09:14:30.759Z,51.46
2019-03-31T09:17:06.999Z,51.47
2019-03-31T09:19:44.763Z,51.73
2019-03-31T09:22:21.654Z,52.14
2019-03-31T09:24:58.465Z,52.39
2019-03-31T09:27:34.134Z,52.41
2019-03-31T09:30:12.060Z,51.66
2019-03-31T09:32:47.393Z,52.27
2019-03-31T09:35:23.191Z,51.69
2019-03-31T09:38:01.161Z,51.81
2019-03-31T09:40:40.222Z,52.42
2019-03-31T09:43:15.449Z,51.84
2019-03-31T09:45:51.995Z,51.23
2019-03-31T09:48:29.328Z,51.52
2019-03-31T09:51:06.039Z,52.00
2019-03-31T09:53:43.416Z,51.56
2019-03-31T09:56:19.149Z,50.35
2019-03-31T09:58:57.314Z,50.35
2019-03-31T10:01:33.681Z,50.65
2019-03-31T10:04:07.448Z,50.23
2019-03-31T10:06:41.382Z,50.05
2019-03-31T10:09:15.128Z,50.29
2019-03-31T10:11:52.428Z,49.94
2019-03-31T10:14:26.177Z,49.60
2019-03-31T10:17:00.908Z,49.43
2019-03-31T10:19:35.720Z,49.50
2019-03-31T10:22:09.433Z,49.91
2019-03-31T10:24:43.082Z,50.45
2019-03-31T10:27:16.744Z,50.85
2019-03-31T10:29:50.414Z,51.19
2019-03-31T10:32:24.016Z,51.18
2019-03-31T10:34:57.818Z,50.59
2019-03-31T10:37:31.577Z,49.28
2019-03-31T10:40:11.747Z,49.93
2019-03-31T10:42:45.550Z,50.82
2019-03-31T10:45:19.501Z,50.15
2019-03-31T10:47:53.273Z,49.43
2019-03-31T10:50:27.344Z,49.58
2019-03-31T10:53:01.225Z,49.84
2019-03-31T10:55:42.798Z,50.33
2019-03-31T10:58:21.986Z,50.46
2019-03-31T11:00:58.606Z,50.64
2019-03-31T11:03:33.234Z,50.99
2019-03-31T11:06:11.652Z,50.51
2019-03-31T11:08:48.226Z,50.43
2019-03-31T11:11:22.051Z,50.61
2019-03-31T11:13:56.251Z,50.51
2019-03-31T11:16:29.930Z,50.09
2019-03-31T11:19:05.524Z,49.40
2019-03-31T11:21:52.834Z,49.50
2019-03-31T11:24:26.832Z,49.10
2019-03-31T11:27:07.188Z,48.79
2019-03-31T11:29:58.708Z,49.31
2019-03-31T11:32:32.830Z,49.67
2019-03-31T11:35:06.627Z,49.81
2019-03-31T11:37:40.518Z,49.60
2019-03-31T11:40:16.048Z,49.69
2019-03-31T11:42:53.458Z,50.22
2019-03-31T11:45:27.172Z,50.17
2019-03-31T11:48:03.282Z,50.37
2019-03-31T11:50:37.213Z,50.74
2019-03-31T11:53:17.088Z,50.48
2019-03-31T11:55:50.826Z,50.40
2019-03-31T11:58:24.701Z,51.12
2019-03-31T12:00:58.503Z,51.24
2019-03-31T12:03:32.303Z,51.18
2019-03-31T12:06:06.011Z,51.48
2019-03-31T12:08:41.323Z,51.18
2019-03-31T12:11:15.211Z,51.28
2019-03-31T12:13:49.017Z,51.34
2019-03-31T12:16:22.771Z,51.15
2019-03-31T12:18:56.409Z,51.39
2019-03-31T12:21:30.277Z,51.41
2019-03-31T12:24:04.001Z,50.93
2019-03-31T12:26:37.745Z,51.17
2019-03-31T12:29:17.287Z,50.58
2019-03-31T12:31:54.551Z,50.65
2019-03-31T12:34:28.463Z,50.84
2019-03-31T12:37:02.314Z,49.92
2019-03-31T12:39:38.183Z,50.28
2019-03-31T12:42:12.005Z,49.36
2019-03-31T12:44:45.964Z,48.80
2019-03-31T12:47:19.841Z,49.12
2019-03-31T12:49:55.169Z,49.21
2019-03-31T12:52:46.140Z,49.91
2019-03-31T12:55:08.799Z,50.04
2019-03-31T12:57:44.475Z,50.29
2019-03-31T13:00:18.754Z,50.78
2019-03-31T13:02:58.003Z,49.99
2019-03-31T13:05:34.746Z,50.50
2019-03-31T13:08:36.300Z,50.69
2019-03-31T13:11:15.497Z,50.98
2019-03-31T13:13:50.933Z,49.79
2019-03-31T13:16:27.413Z,49.97
2019-03-31T13:19:01.414Z,49.77
2019-03-31T13:21:35.429Z,50.19
2019-03-31T13:24:11.858Z,51.03
2019-03-31T13:27:03.959Z,51.62
2019-03-31T13:29:42.982Z,51.28
2019-03-31T13:32:16.871Z,51.32
2019-03-31T13:34:50.960Z,51.33
2019-03-31T13:37:24.631Z,50.69
2019-03-31T13:39:58.401Z,50.31
2019-03-31T13:42:32.200Z,50.53
2019-03-31T13:45:10.045Z,50.83
2019-03-31T13:47:43.826Z,50.82
2019-03-31T13:50:19.857Z,50.63
2019-03-31T13:52:53.586Z,50.56
2019-03-31T13:55:27.231Z,50.45
2019-03-31T13:58:03.428Z,50.49
2019-03-31T14:00:42.826Z,50.87
2019-03-31T14:03:16.750Z,50.80
2019-03-31T14:05:50.523Z,50.88
2019-03-31T14:08:26.035Z,50.49
2019-03-31T14:10:59.627Z,50.44
2019-03-31T14:13:33.409Z,50.38
2019-03-31T14:16:07.238Z,50.34
2019-03-31T14:18:40.995Z,50.41
2019-03-31T14:21:14.827Z,51.00
2019-03-31T14:23:48.530Z,51.21
2019-03-31T14:26:22.133Z,51.53
2019-03-31T14:28:55.809Z,51.80
2019-03-31T14:31:29.577Z,51.25
2019-03-31T14:34:03.340Z,51.07
2019-03-31T14:36:39.981Z,51.55
2019-03-31T14:39:17.014Z,51.85
2019-03-31T14:41:49.487Z,52.00
2019-03-31T14:44:43.442Z,52.04
2019-03-31T14:47:17.183Z,50.70
2019-03-31T14:49:51.063Z,50.90
2019-03-31T14:52:27.668Z,50.62
2019-03-31T14:55:00.533Z,50.66
2019-03-31T14:57:34.262Z,46.66
2019-03-31T15:00:15.071Z,47.92
2019-03-31T15:02:44.995Z,47.13
2019-03-31T15:05:21.696Z,47.62
2019-03-31T15:07:58.325Z,47.15
2019-03-31T15:10:31.100Z,46.27
2019-03-31T15:13:06.030Z,47.53
2019-03-31T15:15:39.880Z,45.58
2019-03-31T15:18:13.535Z,45.75
2019-03-31T15:20:47.320Z,45.53
2019-03-31T15:23:29.020Z,46.20
2019-03-31T15:25:56.403Z,45.35
2019-03-31T15:28:30.108Z,44.85
2019-03-31T15:31:04.856Z,45.21
2019-03-31T15:33:38.508Z,44.21
2019-03-31T15:36:12.233Z,42.48
2019-03-31T15:38:45.938Z,42.89
2019-03-31T15:41:21.286Z,43.71
2019-03-31T15:43:55.098Z,43.03
2019-03-31T15:46:28.785Z,43.73
2019-03-31T15:49:02.495Z,43.52
2019-03-31T15:51:36.523Z,43.61
2019-03-31T15:54:10.265Z,43.68
2019-03-31T15:56:44.219Z,43.26
2019-03-31T15:59:17.955Z,43.99
2019-03-31T16:01:51.632Z,43.34
2019-03-31T16:04:25.374Z,43.61
2019-03-31T16:06:59.362Z,42.81
2019-03-31T16:09:32.286Z,42.60
2019-03-31T16:12:05.545Z,41.29
2019-03-31T16:14:38.629Z,40.81
2019-03-31T16:17:11.780Z,40.36
2019-03-31T16:19:44.705Z,40.02
2019-03-31T16:22:17.647Z,39.92
2019-03-31T16:24:52.321Z,39.85
2019-03-31T16:27:25.162Z,40.27
2019-03-31T16:29:58.056Z,40.41
2019-03-31T16:32:30.846Z,41.00
2019-03-31T16:35:03.744Z,40.89
2019-03-31T16:37:36.572Z,40.62
2019-03-31T16:40:09.409Z,40.27
2019-03-31T16:42:42.267Z,40.27
2019-03-31T16:45:15.229Z,39.23
2019-03-31T16:47:48.234Z,39.54
2019-03-31T16:50:21.228Z,38.81
2019-03-31T16:52:54.136Z,38.84
2019-03-31T16:55:27.373Z,39.79
2019-03-31T16:58:00.566Z,38.80
2019-03-31T17:00:34.736Z,39.07
2019-03-31T17:03:07.861Z,39.53
2019-03-31T17:05:40.672Z,38.69
2019-03-31T17:08:13.457Z,38.68
2019-03-31T17:10:46.394Z,38.99
2019-03-31T17:13:19.203Z,38.87
2019-03-31T17:15:52.115Z,38.41
2019-03-31T17:18:24.934Z,39.19
2019-03-31T17:20:57.789Z,39.42
2019-03-31T17:23:30.652Z,38.75
2019-03-31T17:26:03.631Z,38.90
2019-03-31T17:28:36.526Z,38.42
2019-03-31T17:31:09.743Z,39.30
2019-03-31T17:33:42.539Z,39.76
2019-03-31T17:36:15.426Z,39.33
2019-03-31T17:38:48.319Z,39.44
2019-03-31T17:41:21.250Z,39.56
2019-03-31T17:43:54.096Z,39.61
2019-03-31T17:46:27.006Z,39.88
2019-03-31T17:49:06.035Z,39.46
2019-03-31T17:51:38.863Z,39.55
2019-03-31T17:54:11.622Z,39.00
2019-03-31T17:56:44.411Z,38.93
2019-03-31T17:59:17.387Z,37.60
2019-03-31T18:01:50.296Z,37.02
2019-03-31T18:04:23.177Z,37.30
2019-03-31T18:06:55.988Z,36.53
2019-03-31T18:09:28.842Z,36.33
2019-03-31T18:12:01.819Z,36.39
2019-03-31T18:14:34.710Z,36.12
2019-03-31T18:17:07.547Z,36.33
2019-03-31T18:19:40.465Z,36.56
2019-03-31T18:22:16.816Z,36.15
2019-03-31T18:24:47.974Z,35.85
2019-03-31T18:27:20.906Z,35.62
2019-03-31T18:29:53.804Z,35.95
2019-03-31T18:32:26.650Z,36.27
2019-03-31T18:34:59.534Z,35.74
2019-03-31T18:37:32.597Z,35.92
2019-03-31T18:40:06.909Z,35.97
2019-03-31T18:42:39.922Z,36.12
2019-03-31T18:45:12.857Z,36.05
2019-03-31T18:47:45.916Z,36.64
2019-03-31T18:50:18.810Z,36.46
2019-03-31T18:52:51.786Z,36.61
2019-03-31T18:55:38.664Z,37.02
2019-03-31T18:58:20.406Z,36.96
2019-03-31T19:01:19.378Z,37.36
2019-03-31T19:04:09.222Z,37.47
2019-03-31T19:07:10.086Z,37.81
2019-03-31T19:10:01.762Z,38.26
2019-03-31T19:13:12.073Z,38.38
2019-03-31T19:16:08.948Z,38.62
2019-03-31T19:19:06.734Z,39.07
2019-03-31T19:22:04.576Z,39.24
2019-03-31T19:24:54.920Z,39.43
2019-03-31T19:27:34.920Z,39.63
2019-03-31T19:30:22.049Z,39.92
2019-03-31T19:33:04.690Z,40.20
2019-03-31T19:36:00.954Z,40.62
2019-03-31T19:38:52.769Z,40.90
2019-03-31T19:41:42.910Z,41.14
2019-03-31T19:44:26.025Z,41.57
2019-03-31T19:47:06.593Z,41.93
2019-03-31T19:49:57.362Z,42.16
2019-03-31T19:52:49.028Z,42.27
2019-03-31T19:56:07.034Z,42.55
2019-03-31T19:58:59.173Z,42.71
2019-03-31T20:01:52.182Z,43.09
2019-03-31T20:04:47.735Z,43.55
2019-03-31T20:07:50.303Z,44.01
2019-03-31T20:10:40.133Z,44.08
2019-03-31T20:13:31.923Z,44.84
2019-03-31T20:16:14.141Z,45.18
2019-03-31T20:19:14.858Z,45.05
2019-03-31T20:21:59.667Z,45.20
2019-03-31T20:24:50.095Z,45.39
2019-03-31T20:27:37.827Z,46.04
2019-03-31T20:30:33.359Z,46.13
2019-03-31T20:33:23.938Z,46.22
2019-03-31T20:36:21.463Z,46.41
2019-03-31T20:39:13.191Z,46.73
2019-03-31T20:41:57.351Z,47.17
2019-03-31T20:44:30.215Z,47.16
2019-03-31T20:47:03.167Z,47.73
2019-03-31T20:49:36.152Z,47.26
2019-03-31T20:52:09.055Z,47.51
2019-03-31T20:54:42.067Z,47.62
2019-03-31T20:57:14.996Z,48.38
2019-03-31T20:59:49.127Z,48.38
2019-03-31T21:02:22.391Z,48.65
2019-03-31T21:04:55.363Z,49.10
2019-03-31T21:07:28.326Z,49.23
2019-03-31T21:10:01.199Z,49.61
2019-03-31T21:12:34.178Z,49.73
2019-03-31T21:15:07.257Z,49.99
2019-03-31T21:17:40.126Z,49.66
2019-03-31T21:20:13.172Z,49.66
2019-03-31T21:22:47.018Z,50.17
2019-03-31T21:25:19.831Z,50.72
2019-03-31T21:27:52.622Z,50.64
2019-03-31T21:30:25.465Z,50.71
2019-03-31T21:32:58.296Z,50.72
2019-03-31T21:35:31.375Z,50.46
2019-03-31T21:38:04.323Z,51.09
2019-03-31T21:40:37.251Z,51.19
2019-03-31T21:43:10.051Z,51.47
2019-03-31T21:45:43.790Z,51.57
2019-03-31T21:48:16.872Z,51.77
2019-03-31T21:50:49.721Z,51.21
2019-03-31T21:53:22.755Z,51.57
2019-03-31T21:55:55.876Z,51.20
2019-03-31T21:58:29.155Z,51.59
2019-03-31T22:01:02.832Z,51.24
2019-03-31T22:03:37.016Z,51.52
2019-03-31T22:06:10.113Z,51.47
2019-03-31T22:08:43.248Z,50.75
2019-03-31T22:11:16.235Z,51.78
2019-03-31T22:13:49.241Z,51.22
2019-03-31T22:16:23.307Z,51.00
2019-03-31T22:18:56.239Z,51.88
2019-03-31T22:21:29.208Z,50.80
2019-03-31T22:24:02.182Z,51.04
2019-03-31T22:26:35.191Z,51.27
2019-03-31T22:29:09.090Z,51.01
2019-03-31T22:31:42.010Z,51.93
2019-03-31T22:34:15.086Z,51.06
2019-03-31T22:36:48.053Z,50.99
2019-03-31T22:39:21.026Z,51.73
2019-03-31T22:41:53.921Z,50.81
2019-03-31T22:44:26.887Z,51.37
2019-03-31T22:46:59.921Z,51.97
2019-03-31T22:49:32.936Z,51.26
2019-03-31T22:52:05.860Z,51.96
2019-03-31T22:54:38.760Z,51.29
2019-03-31T22:57:11.636Z,51.06
2019-03-31T22:59:44.608Z,52.48
2019-03-31T23:02:17.496Z,51.64
2019-03-31T23:04:50.568Z,51.43
2019-03-31T23:07:23.450Z,52.67
2019-03-31T23:09:56.422Z,51.69
2019-03-31T23:12:29.332Z,51.74
2019-03-31T23:15:02.307Z,52.92
2019-03-31T23:17:35.204Z,51.99
2019-03-31T23:20:08.249Z,52.18
2019-03-31T23:22:41.329Z,52.89
2019-03-31T23:25:14.251Z,52.24
2019-03-31T23:27:47.249Z,53.88
2019-03-31T23:30:20.266Z,52.81
2019-03-31T23:32:53.268Z,52.41
2019-03-31T23:35:26.288Z,54.29
2019-03-31T23:37:59.236Z,51.96
2019-03-31T23:40:32.168Z,51.96
2019-03-31T23:43:05.036Z,53.94
2019-03-31T23:45:37.921Z,51.84
2019-03-31T23:48:10.763Z,52.20
2019-03-31T23:50:43.642Z,54.68
2019-03-31T23:53:16.798Z,52.37
2019-03-31T23:55:49.705Z,52.22
2019-03-31T23:58:22.623Z,54.03
